createdAt,value
2019-02-12T00:00:38.118Z,2.40
2019-02-12T00:05:44.192Z,2.55
2019-02-12T00:10:50.482Z,2.37
2019-02-12T00:15:56.761Z,2.47
2019-02-12T00:21:09.090Z,2.87
2019-02-12T00:26:12.418Z,2.80
2019-02-12T00:31:18.740Z,2.10
2019-02-12T00:36:26.269Z,2.10
2019-02-12T00:41:32.561Z,2.50
2019-02-12T00:46:38.738Z,2.40
2019-02-12T00:51:45.299Z,2.80
2019-02-12T00:56:51.019Z,2.85
2019-02-12T01:01:56.981Z,2.40
2019-02-12T01:07:03.083Z,2.42
2019-02-12T01:12:09.089Z,2.83
2019-02-12T01:17:14.930Z,2.85
2019-02-12T01:22:20.708Z,2.45
2019-02-12T01:27:26.938Z,2.65
2019-02-12T01:32:32.982Z,2.90
2019-02-12T01:37:39.229Z,2.42
2019-02-12T01:42:45.668Z,2.72
2019-02-12T01:47:51.828Z,2.62
2019-02-12T01:52:58.138Z,2.10
2019-02-12T01:58:04.459Z,2.47
2019-02-12T02:03:10.138Z,2.22
2019-02-12T02:08:16.109Z,2.27
2019-02-12T02:13:22.029Z,2.00
2019-02-12T02:18:28.939Z,2.37
2019-02-12T02:23:36.083Z,1.82
2019-02-12T02:28:41.861Z,2.25
2019-02-12T02:33:48.031Z,2.00
2019-02-12T02:38:53.808Z,1.92
2019-02-12T02:43:59.888Z,2.27
2019-02-12T02:49:05.759Z,2.17
2019-02-12T02:54:11.818Z,2.02
2019-02-12T02:59:17.688Z,1.72
2019-02-12T03:04:23.489Z,2.08
2019-02-12T03:09:29.258Z,2.10
2019-02-12T03:14:34.959Z,2.08
2019-02-12T03:19:40.758Z,1.82
2019-02-12T03:24:46.535Z,1.90
2019-02-12T03:29:52.315Z,1.70
2019-02-12T03:34:58.063Z,2.00
2019-02-12T03:40:03.948Z,1.82
2019-02-12T03:45:10.368Z,2.20
2019-02-12T03:50:16.039Z,2.22
2019-02-12T03:55:21.689Z,2.05
2019-02-12T04:00:27.519Z,2.08
2019-02-12T04:05:33.408Z,2.20
2019-02-12T04:10:39.451Z,1.87
2019-02-12T04:15:45.248Z,1.98
2019-02-12T04:20:51.048Z,1.87
2019-02-12T04:25:56.948Z,1.80
2019-02-12T04:31:03.968Z,1.92
2019-02-12T04:36:09.769Z,1.80
2019-02-12T04:41:15.599Z,1.72
2019-02-12T04:46:21.369Z,1.80
2019-02-12T04:51:26.988Z,2.17
2019-02-12T04:56:32.789Z,1.67
2019-02-12T05:01:38.708Z,1.62
2019-02-12T05:06:44.574Z,1.55
2019-02-12T05:11:57.207Z,1.85
2019-02-12T05:17:02.971Z,1.70
2019-02-12T05:22:08.758Z,2.02
2019-02-12T05:27:14.459Z,1.60
2019-02-12T05:32:20.141Z,1.47
2019-02-12T05:37:26.038Z,1.55
2019-02-12T05:42:31.770Z,1.87
2019-02-12T05:47:37.758Z,1.42
2019-02-12T05:52:53.340Z,1.75
2019-02-12T05:57:50.798Z,1.57
2019-02-12T06:02:56.585Z,1.62
2019-02-12T06:08:02.388Z,1.65
2019-02-12T06:13:08.391Z,1.60
2019-02-12T06:18:14.198Z,1.67
2019-02-12T06:23:20.230Z,1.35
2019-02-12T06:28:25.878Z,1.77
2019-02-12T06:33:31.668Z,1.98
2019-02-12T06:38:37.468Z,1.60
2019-02-12T06:43:43.165Z,1.77
2019-02-12T06:48:49.168Z,1.50
2019-02-12T06:53:54.978Z,1.47
2019-02-12T06:59:00.818Z,1.70
2019-02-12T07:04:15.567Z,1.27
2019-02-12T07:09:32.444Z,2.10
2019-02-12T07:15:16.958Z,1.52
2019-02-12T07:21:01.170Z,1.92
2019-02-12T07:26:28.460Z,1.70
2019-02-12T07:32:25.980Z,1.62
2019-02-12T07:38:17.558Z,1.60
2019-02-12T07:44:10.119Z,1.60
2019-02-12T07:49:37.900Z,1.55
2019-02-12T07:55:18.519Z,1.42
2019-02-12T08:01:00.628Z,1.30
2019-02-12T08:06:47.058Z,1.75
2019-02-12T08:12:14.278Z,1.75
2019-02-12T08:17:42.721Z,1.60
2019-02-12T08:23:15.388Z,1.60
2019-02-12T08:29:04.818Z,1.32
2019-02-12T08:34:57.054Z,1.82
2019-02-12T08:41:01.573Z,1.50
2019-02-12T08:46:50.204Z,1.67
2019-02-12T08:52:38.238Z,1.90
2019-02-12T08:58:24.768Z,1.90
2019-02-12T09:03:54.888Z,2.00
2019-02-12T09:09:26.592Z,1.60
2019-02-12T09:15:04.048Z,1.80
2019-02-12T09:20:59.258Z,1.80
2019-02-12T09:27:01.098Z,1.60
2019-02-12T09:32:43.481Z,1.47
2019-02-12T09:38:45.220Z,1.47
2019-02-12T09:44:45.288Z,1.50
2019-02-12T09:50:32.648Z,1.30
2019-02-12T09:56:22.090Z,1.50
2019-02-12T10:01:45.169Z,1.52
2019-02-12T10:07:02.069Z,1.55
2019-02-12T10:12:37.647Z,1.70
2019-02-12T10:18:06.382Z,1.47
2019-02-12T10:23:48.828Z,1.40
2019-02-12T10:29:21.316Z,1.30
2019-02-12T10:34:27.078Z,1.40
2019-02-12T10:39:32.978Z,1.50
2019-02-12T10:44:38.920Z,2.20
2019-02-12T10:49:44.609Z,3.10
2019-02-12T10:54:50.497Z,3.33
2019-02-12T10:59:55.858Z,3.33
2019-02-12T11:05:01.709Z,3.75
2019-02-12T11:10:07.847Z,3.58
2019-02-12T11:15:13.717Z,3.72
2019-02-12T11:20:19.678Z,3.77
2019-02-12T11:25:25.448Z,3.77
2019-02-12T11:30:31.088Z,3.85
2019-02-12T11:35:37.507Z,3.20
2019-02-12T11:40:43.420Z,3.08
2019-02-12T11:45:49.300Z,3.62
2019-02-12T11:50:55.128Z,2.77
2019-02-12T11:56:00.838Z,2.80
2019-02-12T12:01:10.319Z,3.25
2019-02-12T12:06:16.128Z,2.77
2019-02-12T12:11:22.031Z,2.25
2019-02-12T12:16:27.898Z,2.45
2019-02-12T12:21:34.577Z,3.10
2019-02-12T12:26:40.489Z,2.55
2019-02-12T12:31:46.469Z,2.60
2019-02-12T12:36:51.689Z,2.70
2019-02-12T12:41:57.135Z,3.40
2019-02-12T12:47:02.941Z,2.42
2019-02-12T12:52:09.669Z,2.05
2019-02-12T12:57:15.961Z,2.27
2019-02-12T13:02:21.909Z,2.92
2019-02-12T13:07:27.541Z,2.40
2019-02-12T13:12:33.277Z,2.45
2019-02-12T13:17:39.137Z,2.20
2019-02-12T13:22:44.787Z,2.20
2019-02-12T13:27:50.668Z,2.62
2019-02-12T13:32:56.388Z,2.33
2019-02-12T13:38:02.288Z,2.08
2019-02-12T13:43:07.988Z,2.30
2019-02-12T13:48:15.115Z,1.98
2019-02-12T13:53:20.389Z,2.10
2019-02-12T13:58:26.017Z,1.77
2019-02-12T14:03:31.975Z,2.17
2019-02-12T14:08:37.808Z,2.12
2019-02-12T14:13:43.540Z,2.25
2019-02-12T14:18:49.739Z,2.05
2019-02-12T14:23:55.749Z,1.70
2019-02-12T14:29:01.616Z,1.60
2019-02-12T14:34:07.585Z,1.80
2019-02-12T14:39:13.419Z,1.85
2019-02-12T14:44:19.309Z,1.80
2019-02-12T14:49:24.988Z,2.40
2019-02-12T14:54:30.718Z,1.90
2019-02-12T14:59:36.388Z,2.08
2019-02-12T15:04:42.048Z,1.57
2019-02-12T15:10:00.155Z,1.80
2019-02-12T15:15:07.938Z,1.82
2019-02-12T15:20:14.908Z,2.17
2019-02-12T15:25:23.014Z,1.65
2019-02-12T15:30:30.219Z,2.22
2019-02-12T15:35:35.947Z,1.57
2019-02-12T15:40:43.428Z,1.90
2019-02-12T15:45:50.089Z,1.67
2019-02-12T15:50:55.631Z,1.35
2019-02-12T15:56:02.632Z,1.77
2019-02-12T16:01:08.449Z,1.77
2019-02-12T16:06:14.889Z,1.75
2019-02-12T16:11:20.978Z,1.57
2019-02-12T16:16:28.124Z,1.30
2019-02-12T16:21:35.386Z,1.77
2019-02-12T16:26:41.188Z,1.75
2019-02-12T16:31:48.788Z,1.92
2019-02-12T16:36:55.479Z,2.02
2019-02-12T16:42:01.659Z,2.40
2019-02-12T16:47:07.951Z,1.82
2019-02-12T16:52:20.643Z,2.62
2019-02-12T16:57:22.398Z,2.05
2019-02-12T17:02:29.970Z,2.42
2019-02-12T17:07:38.673Z,2.02
2019-02-12T17:12:45.108Z,2.47
2019-02-12T17:17:51.158Z,2.75
2019-02-12T17:22:57.048Z,2.20
2019-02-12T17:28:03.031Z,2.17
2019-02-12T17:33:10.229Z,1.70
2019-02-12T17:38:16.089Z,1.60
2019-02-12T17:43:22.328Z,2.00
2019-02-12T17:48:29.100Z,2.50
2019-02-12T17:53:34.848Z,2.20
2019-02-12T17:58:41.497Z,1.70
2019-02-12T18:03:48.915Z,1.85
2019-02-12T18:08:54.570Z,1.75
2019-02-12T18:14:01.738Z,1.72
2019-02-12T18:19:08.290Z,2.05
2019-02-12T18:24:14.309Z,1.98
2019-02-12T18:29:20.248Z,1.75
2019-02-12T18:34:26.178Z,1.72
2019-02-12T18:39:32.158Z,1.32
2019-02-12T18:44:37.938Z,1.72
2019-02-12T18:49:43.698Z,1.60
2019-02-12T18:54:49.527Z,1.62
2019-02-12T18:59:55.289Z,2.08
2019-02-12T19:05:01.392Z,1.80
2019-02-12T19:10:07.838Z,1.60
2019-02-12T19:15:15.273Z,1.45
2019-02-12T19:20:21.200Z,1.65
2019-02-12T19:25:26.888Z,1.70
2019-02-12T19:30:32.687Z,1.92
2019-02-12T19:35:38.228Z,1.60
2019-02-12T19:40:44.390Z,1.80
2019-02-12T19:45:50.127Z,1.37
2019-02-12T19:50:55.968Z,1.87
2019-02-12T19:56:01.670Z,1.87
2019-02-12T20:01:07.519Z,1.50
2019-02-12T20:06:13.218Z,1.80
2019-02-12T20:11:18.978Z,2.05
2019-02-12T20:16:24.699Z,1.60
2019-02-12T20:21:49.148Z,2.15
2019-02-12T20:26:54.809Z,1.55
2019-02-12T20:32:00.578Z,1.50
2019-02-12T20:37:06.379Z,1.80
2019-02-12T20:42:12.239Z,1.70
2019-02-12T20:47:17.919Z,1.87
2019-02-12T20:52:23.558Z,1.67
2019-02-12T20:57:29.378Z,1.65
2019-02-12T21:02:35.438Z,1.90
2019-02-12T21:07:41.398Z,1.82
2019-02-12T21:12:47.549Z,1.40
2019-02-12T21:17:53.600Z,1.57
2019-02-12T21:22:59.538Z,1.42
2019-02-12T21:28:05.459Z,1.27
2019-02-12T21:33:12.649Z,1.80
2019-02-12T21:38:20.488Z,1.52
2019-02-12T21:43:26.489Z,1.87
2019-02-12T21:48:32.489Z,1.45
2019-02-12T21:53:38.500Z,1.57
2019-02-12T21:58:44.376Z,2.80
2019-02-12T22:03:50.058Z,2.08
2019-02-12T22:08:57.432Z,1.92
2019-02-12T22:14:04.010Z,1.77
2019-02-12T22:19:10.074Z,1.98
2019-02-12T22:24:17.288Z,1.65
2019-02-12T22:29:24.688Z,1.90
2019-02-12T22:34:33.568Z,1.65
2019-02-12T22:39:40.149Z,1.82
2019-02-12T22:44:46.869Z,1.90
2019-02-12T22:49:56.109Z,2.02
2019-02-12T22:55:01.951Z,1.60
2019-02-12T23:00:16.808Z,1.80
2019-02-12T23:05:24.741Z,1.65
2019-02-12T23:10:31.408Z,1.67
2019-02-12T23:15:37.530Z,2.15
2019-02-12T23:20:43.739Z,1.90
2019-02-12T23:25:49.370Z,1.90
2019-02-12T23:30:56.951Z,1.55
2019-02-12T23:36:04.028Z,1.75
2019-02-12T23:41:10.329Z,1.80
2019-02-12T23:46:16.152Z,1.98
2019-02-12T23:51:22.090Z,2.02
2019-02-12T23:56:27.798Z,2.10
